Daigle Mill, ME

3:14 PM EST on January 17, 2017 (GMT -0500)
N7GLR aprswxnet | | Change Station

Elev 711 ft 47.24 °N, 68.10 °W | Updated 4 minutes ago

Clear
Clear
17.9 °F
Feels Like 18 °F
N
0.0
Wind Variable Wind from SE
Gusts 0.0 mph

Today
High -- | Low -- °F
--% Chance of Precip.
Yesterday
High -- | Low -- °F
Precip. -- in
Pressure 30.30 in
Visibility 10.0 miles
Clouds Clear
Windchill 18 °F
Dew Point 5 °F
Humidity 57%
Rainfall 0.00 in
Snow Depth Not available.
7:13 AM 4:12 PM
Waning Gibbous, 70% visible
METAR KFVE 171953Z AUTO 36005KT 10SM CLR M08/M19 A3025 RMK AO2 SLP258 T10831194
Pressure 30.30 in
Visibility 10.0 miles
Clouds Clear
Windchill 18 °F
Dew Point 5 °F
Humidity 57%
Rainfall 0.00 in
Snow Depth Not available.
7:13 AM 4:12 PM
Waning Gibbous, 70% visible
METAR KFVE 171953Z AUTO 36005KT 10SM CLR M08/M19 A3025 RMK AO2 SLP258 T10831194

Get Your Daily Forecast Email!

Thanks for signing up!

Be on the lookout for a verification email in your inbox.

You'll start receiving the daily forecast at 8 AM.

×

10-Day Weather Forecast

Almanac

Astronomy

Jan. 17, 2017 Rise Set
Actual Time
Civil Twilight
Nautical Twilight
Astronomical Twilight
Moon
Length of Visible Light
Length of Day
Tomorrow will be .
, % of the Moon is Illuminated

Today's Extremes

State Highs State Lows

Community

WunderPhotos

Upload Photos

1,962,540 photos uploaded!

WunderBlog® & News

Nearby

Air Quality

  Air Quality AQ Index Pollutant
Not available.

Snow Depth

Station Depth Elevation

Earthquake Activity

City Distance Mag. Time & Date
Minimum magnitude displayed is 2.5.

Coastal Water Temperatures

Place Temperature

Stations

Nearby Weather Stations

Station Location Temp. Windchill Dew Point Humidity Wind Precip. Elev Updated Type
                   

Watches & Warnings

There are currently no watches in effect.